»·PEaware :: N9273T KYKM-S31

N9273T :: KYKM-S31

FLIGHT INFORMATION

Flight Status: Arrived
Operator: Privately registered:
United States
More flights under this callsign
Pilot: Jim L. (28297)
Aircraft: MOONEY M-20 201 202 205 220 ATS MSE
(M20P)
More flights by this aircraft type
Origin: KYKM Yakima Air Term/Mcallister
United States
Destination: S31 Lopez Island
United States
More flights between these airports :: More routes between these airports
Route: +
File this flight plan on PilotEdge
Remarks: Alphabet Challenge Washington Edition
Altitude:
(Current/Filed)
12,500ft
Speed:
(Current/Filed)
142kts
Departed: 02-May-20 04:48 PM
Arrived: 02-May-20 05:58 PM
Distance/Time
Traveled:
150nm/1:10
Distance/Time
To Go:
Arrived

Flight Plot

Page will automatically refresh every two minutes.


Map Options




Map Legend


Flown Route
Filed Route
Departure Airport
Arrival Airport
Navaid (VOR, NDB)
Fix

Horizontal Profiles

Position Reports

Time Latitude Longitude Heading Altitude Ground
Speed
02-May-20 16:33 46.573657 -120.556020 257 1101ft 0kts
02-May-20 16:34 46.573657 -120.556020 257 1101ft 0kts
02-May-20 16:35 46.573657 -120.556020 257 1101ft 0kts
02-May-20 16:36 46.573657 -120.556020 257 1101ft 0kts
02-May-20 16:37 46.573657 -120.556020 257 1101ft 0kts
02-May-20 16:38 46.573657 -120.556020 257 1101ft 0kts
02-May-20 16:39 46.573657 -120.556020 257 1101ft 0kts
02-May-20 16:40 46.573657 -120.556020 257 1101ft 0kts
02-May-20 16:41 46.573657 -120.556020 257 1101ft 0kts
02-May-20 16:42 46.573541 -120.556119 195 1101ft 4kts
02-May-20 16:43 46.572312 -120.553953 110 1101ft 16kts
02-May-20 16:44 46.570155 -120.545076 109 1101ft 27kts
02-May-20 16:45 46.569175 -120.537401 60 1101ft 17kts
02-May-20 16:46 46.570244 -120.534590 91 1101ft 1kts
02-May-20 16:47 46.565032 -120.545676 241 1223ft 94kts
02-May-20 16:48 46.562136 -120.582959 275 2538ft 101kts
02-May-20 16:49 46.564349 -120.625385 279 3788ft 109kts
02-May-20 16:50 46.569595 -120.672011 273 4796ft 126kts
02-May-20 16:51 46.570848 -120.725988 271 5725ft 137kts
02-May-20 16:52 46.571560 -120.781393 271 6723ft 136kts
02-May-20 16:53 46.572202 -120.836616 271 7724ft 138kts
02-May-20 16:54 46.572826 -120.892148 271 8721ft 137kts
02-May-20 16:55 46.573397 -120.946993 271 9715ft 134kts
02-May-20 16:56 46.573945 -121.001321 271 10647ft 135kts
02-May-20 16:57 46.574472 -121.055668 271 11544ft 133kts
02-May-20 16:58 46.574973 -121.109899 271 12439ft 135kts
02-May-20 16:59 46.575686 -121.172753 271 12503ft 170kts
02-May-20 17:00 46.576367 -121.243498 271 12500ft 177kts
02-May-20 17:01 46.577116 -121.315657 271 12499ft 179kts
02-May-20 17:02 46.577799 -121.388277 271 12499ft 179kts
02-May-20 17:03 46.578287 -121.461182 271 12499ft 179kts
02-May-20 17:04 46.578709 -121.533758 271 12499ft 179kts
02-May-20 17:05 46.579090 -121.606579 271 12499ft 179kts
02-May-20 17:06 46.588896 -121.675749 295 12500ft 179kts
02-May-20 17:07 46.610414 -121.741297 295 12499ft 179kts
02-May-20 17:08 46.631543 -121.807328 295 12499ft 179kts
02-May-20 17:09 46.652547 -121.873394 295 12499ft 179kts
02-May-20 17:10 46.673501 -121.939480 295 12499ft 179kts
02-May-20 17:11 46.694474 -122.005811 295 12499ft 179kts
02-May-20 17:12 46.715355 -122.072022 295 12499ft 179kts
02-May-20 17:13 46.736202 -122.138312 295 12499ft 179kts
02-May-20 17:14 46.756461 -122.202867 295 12499ft 179kts
02-May-20 17:15 46.777688 -122.270680 295 12499ft 179kts
02-May-20 17:16 46.798436 -122.337149 295 12499ft 179kts
02-May-20 17:17 46.819186 -122.403802 295 12499ft 179kts
02-May-20 17:18 46.839866 -122.470397 295 12499ft 180kts
02-May-20 17:19 46.860558 -122.537207 295 12499ft 180kts
02-May-20 17:20 46.881146 -122.603899 295 12499ft 180kts
02-May-20 17:21 46.901740 -122.670769 294 12499ft 180kts
02-May-20 17:22 46.922240 -122.737504 294 12499ft 180kts
02-May-20 17:23 46.942737 -122.804395 294 12499ft 180kts
02-May-20 17:24 46.963216 -122.871404 294 12499ft 180kts
02-May-20 17:25 47.003653 -122.902806 359 12501ft 179kts
02-May-20 17:26 47.053709 -122.903456 359 12499ft 180kts
02-May-20 17:27 47.103794 -122.904980 358 12499ft 180kts
02-May-20 17:28 47.153988 -122.906650 358 12499ft 180kts
02-May-20 17:29 47.203993 -122.908316 358 12499ft 180kts
02-May-20 17:30 47.254179 -122.909986 358 12499ft 180kts
02-May-20 17:31 47.304228 -122.911659 358 12499ft 180kts
02-May-20 17:33 47.354127 -122.913312 358 12499ft 180kts
02-May-20 17:34 47.404257 -122.914987 358 12499ft 180kts
02-May-20 17:35 47.454282 -122.916656 358 12499ft 180kts
02-May-20 17:36 47.504528 -122.918339 358 12499ft 180kts
02-May-20 17:37 47.554666 -122.920024 358 12499ft 180kts
02-May-20 17:38 47.604873 -122.921702 358 12499ft 180kts
02-May-20 17:39 47.655069 -122.923404 358 12499ft 180kts
02-May-20 17:40 47.705278 -122.925095 358 12499ft 180kts
02-May-20 17:41 47.758033 -122.926697 359 11807ft 196kts
02-May-20 17:42 47.812600 -122.928369 359 11005ft 196kts
02-May-20 17:43 47.867107 -122.930178 359 10202ft 195kts
02-May-20 17:44 47.921403 -122.931998 359 9399ft 195kts
02-May-20 17:45 47.975608 -122.933845 358 8594ft 194kts
02-May-20 17:46 48.029336 -122.936316 358 7793ft 193kts
02-May-20 17:47 48.083128 -122.936988 1 6978ft 192kts
02-May-20 17:48 48.134705 -122.937374 0 6103ft 187kts
02-May-20 17:48 48.177213 -122.937385 0 5345ft 180kts
02-May-20 17:50 48.235345 -122.937404 0 4291ft 178kts
02-May-20 17:51 48.284096 -122.937454 359 3362ft 157kts
02-May-20 17:51 48.317305 -122.937468 0 2595ft 138kts
02-May-20 17:53 48.361669 -122.937159 359 1541ft 136kts
02-May-20 17:53 48.391906 -122.937375 0 1209ft 130kts
02-May-20 17:54 48.427380 -122.937541 0 1194ft 116kts
02-May-20 17:55 48.459435 -122.937595 359 625ft 102kts
02-May-20 17:56 48.482455 -122.937669 1 202ft 58kts
02-May-20 17:57 48.486301 -122.936785 257 202ft 2kts
02-May-20 17:58 48.486301 -122.936816 270 202ft 0kts

Navigation Log

Ident Type
Flight plan parsing failed, navigation log unavailable